sensor_id;sensor_type;location;lat;lon;timestamp;temperature;humidity
44695;DHT22;32845;59.422;17.930;2023-12-20T00:02:05;0.90;99.90
44695;DHT22;32845;59.422;17.930;2023-12-20T00:06:35;0.90;99.90
44695;DHT22;32845;59.422;17.930;2023-12-20T00:11:06;0.90;99.90
44695;DHT22;32845;59.422;17.930;2023-12-20T00:15:37;0.80;99.90
44695;DHT22;32845;59.422;17.930;2023-12-20T00:20:08;0.80;99.90
44695;DHT22;32845;59.422;17.930;2023-12-20T00:24:38;0.80;99.90
44695;DHT22;32845;59.422;17.930;2023-12-20T00:29:09;0.70;99.90
44695;DHT22;32845;59.422;17.930;2023-12-20T00:33:39;0.70;99.90
44695;DHT22;32845;59.422;17.930;2023-12-20T00:38:13;0.60;99.90
44695;DHT22;32845;59.422;17.930;2023-12-20T00:42:44;0.60;99.90
44695;DHT22;32845;59.422;17.930;2023-12-20T00:47:17;0.60;99.90
44695;DHT22;32845;59.422;17.930;2023-12-20T00:51:47;0.50;99.90
44695;DHT22;32845;59.422;17.930;2023-12-20T00:56:21;0.50;99.90
44695;DHT22;32845;59.422;17.930;2023-12-20T01:00:51;0.40;99.90
44695;DHT22;32845;59.422;17.930;2023-12-20T01:05:22;0.40;99.90
44695;DHT22;32845;59.422;17.930;2023-12-20T01:09:53;0.30;99.90
44695;DHT22;32845;59.422;17.930;2023-12-20T01:14:24;0.30;99.90
44695;DHT22;32845;59.422;17.930;2023-12-20T01:18:55;0.30;99.90
44695;DHT22;32845;59.422;17.930;2023-12-20T01:23:25;0.30;99.90
44695;DHT22;32845;59.422;17.930;2023-12-20T01:27:56;0.20;99.90
44695;DHT22;32845;59.422;17.930;2023-12-20T01:32:26;0.20;99.90
44695;DHT22;32845;59.422;17.930;2023-12-20T01:36:57;0.20;99.90
44695;DHT22;32845;59.422;17.930;2023-12-20T01:41:27;0.20;99.90
44695;DHT22;32845;59.422;17.930;2023-12-20T01:46:04;0.20;99.90
44695;DHT22;32845;59.422;17.930;2023-12-20T01:50:36;0.20;99.90
44695;DHT22;32845;59.422;17.930;2023-12-20T01:55:08;0.30;99.90
44695;DHT22;32845;59.422;17.930;2023-12-20T01:59:44;0.30;99.90
44695;DHT22;32845;59.422;17.930;2023-12-20T02:04:15;0.30;99.90
44695;DHT22;32845;59.422;17.930;2023-12-20T02:08:46;0.30;99.90
44695;DHT22;32845;59.422;17.930;2023-12-20T02:13:17;0.30;99.90
44695;DHT22;32845;59.422;17.930;2023-12-20T02:17:48;0.30;99.90
44695;DHT22;32845;59.422;17.930;2023-12-20T02:22:19;0.40;99.90
44695;DHT22;32845;59.422;17.930;2023-12-20T02:26:49;0.40;99.90
44695;DHT22;32845;59.422;17.930;2023-12-20T02:31:23;0.50;99.90
44695;DHT22;32845;59.422;17.930;2023-12-20T02:35:54;0.50;99.90
44695;DHT22;32845;59.422;17.930;2023-12-20T02:40:24;0.50;99.90
44695;DHT22;32845;59.422;17.930;2023-12-20T02:44:55;0.50;99.90
44695;DHT22;32845;59.422;17.930;2023-12-20T02:49:25;0.60;99.90
44695;DHT22;32845;59.422;17.930;2023-12-20T02:53:56;0.60;99.90
44695;DHT22;32845;59.422;17.930;2023-12-20T02:58:26;0.60;99.90
44695;DHT22;32845;59.422;17.930;2023-12-20T03:02:57;0.60;99.90
44695;DHT22;32845;59.422;17.930;2023-12-20T03:07:29;0.60;99.90
44695;DHT22;32845;59.422;17.930;2023-12-20T03:12:00;0.50;99.90
44695;DHT22;32845;59.422;17.930;2023-12-20T03:16:31;0.50;99.90
44695;DHT22;32845;59.422;17.930;2023-12-20T03:21:04;0.60;99.90
44695;DHT22;32845;59.422;17.930;2023-12-20T03:25:34;0.60;99.90
44695;DHT22;32845;59.422;17.930;2023-12-20T03:30:05;0.60;99.90
44695;DHT22;32845;59.422;17.930;2023-12-20T03:34:36;0.60;99.90
44695;DHT22;32845;59.422;17.930;2023-12-20T03:39:07;0.60;99.90
44695;DHT22;32845;59.422;17.930;2023-12-20T03:43:37;0.60;99.90
44695;DHT22;32845;59.422;17.930;2023-12-20T03:48:08;0.60;99.90
44695;DHT22;32845;59.422;17.930;2023-12-20T03:52:39;0.60;99.90
44695;DHT22;32845;59.422;17.930;2023-12-20T03:57:09;0.70;99.90
44695;DHT22;32845;59.422;17.930;2023-12-20T04:01:43;0.70;99.90
44695;DHT22;32845;59.422;17.930;2023-12-20T04:06:18;0.70;99.90
44695;DHT22;32845;59.422;17.930;2023-12-20T04:10:48;0.70;99.90
44695;DHT22;32845;59.422;17.930;2023-12-20T04:15:19;0.70;99.90
44695;DHT22;32845;59.422;17.930;2023-12-20T04:19:50;0.70;99.90
44695;DHT22;32845;59.422;17.930;2023-12-20T04:24:21;0.70;99.90
44695;DHT22;32845;59.422;17.930;2023-12-20T04:28:52;0.70;99.90
44695;DHT22;32845;59.422;17.930;2023-12-20T04:33:23;0.70;99.90
44695;DHT22;32845;59.422;17.930;2023-12-20T04:37:54;0.80;99.90
44695;DHT22;32845;59.422;17.930;2023-12-20T04:42:24;0.80;99.90
44695;DHT22;32845;59.422;17.930;2023-12-20T04:46:55;0.70;99.90
44695;DHT22;32845;59.422;17.930;2023-12-20T04:51:27;0.70;99.90
44695;DHT22;32845;59.422;17.930;2023-12-20T04:55:57;0.70;99.90
44695;DHT22;32845;59.422;17.930;2023-12-20T05:00:28;0.70;99.90
44695;DHT22;32845;59.422;17.930;2023-12-20T05:04:59;0.70;99.90
44695;DHT22;32845;59.422;17.930;2023-12-20T05:09:29;0.60;99.90
44695;DHT22;32845;59.422;17.930;2023-12-20T05:14:00;0.60;99.90
44695;DHT22;32845;59.422;17.930;2023-12-20T05:18:30;0.60;99.90
44695;DHT22;32845;59.422;17.930;2023-12-20T05:23:01;0.60;99.90
44695;DHT22;32845;59.422;17.930;2023-12-20T05:27:31;0.60;99.90
44695;DHT22;32845;59.422;17.930;2023-12-20T05:32:02;0.60;99.90
44695;DHT22;32845;59.422;17.930;2023-12-20T05:36:35;0.70;99.90
44695;DHT22;32845;59.422;17.930;2023-12-20T05:41:06;0.70;99.90
44695;DHT22;32845;59.422;17.930;2023-12-20T05:45:36;0.70;99.90
44695;DHT22;32845;59.422;17.930;2023-12-20T05:50:07;0.70;99.90
44695;DHT22;32845;59.422;17.930;2023-12-20T05:54:38;0.70;99.90
44695;DHT22;32845;59.422;17.930;2023-12-20T05:59:08;0.70;99.90
44695;DHT22;32845;59.422;17.930;2023-12-20T06:03:41;0.70;99.90
44695;DHT22;32845;59.422;17.930;2023-12-20T06:08:12;0.70;99.90
44695;DHT22;32845;59.422;17.930;2023-12-20T06:12:42;0.70;99.90
44695;DHT22;32845;59.422;17.930;2023-12-20T06:17:13;0.70;99.90
44695;DHT22;32845;59.422;17.930;2023-12-20T06:21:44;0.70;99.90
44695;DHT22;32845;59.422;17.930;2023-12-20T06:26:14;0.70;99.90
44695;DHT22;32845;59.422;17.930;2023-12-20T06:30:45;0.70;99.90
44695;DHT22;32845;59.422;17.930;2023-12-20T06:35:17;0.70;99.90
44695;DHT22;32845;59.422;17.930;2023-12-20T06:39:48;0.70;99.90
44695;DHT22;32845;59.422;17.930;2023-12-20T06:44:18;0.80;99.90
44695;DHT22;32845;59.422;17.930;2023-12-20T06:48:49;0.80;99.90
44695;DHT22;32845;59.422;17.930;2023-12-20T06:53:19;0.80;99.90
44695;DHT22;32845;59.422;17.930;2023-12-20T06:57:50;0.80;99.90
44695;DHT22;32845;59.422;17.930;2023-12-20T07:02:21;0.80;99.90
44695;DHT22;32845;59.422;17.930;2023-12-20T07:06:52;0.80;99.90
44695;DHT22;32845;59.422;17.930;2023-12-20T07:11:27;0.80;99.90
44695;DHT22;32845;59.422;17.930;2023-12-20T07:15:57;0.80;99.90
44695;DHT22;32845;59.422;17.930;2023-12-20T07:20:28;0.90;99.90
44695;DHT22;32845;59.422;17.930;2023-12-20T07:24:59;0.90;99.90
44695;DHT22;32845;59.422;17.930;2023-12-20T07:29:30;0.90;99.90
44695;DHT22;32845;59.422;17.930;2023-12-20T07:34:01;1.00;99.90
44695;DHT22;32845;59.422;17.930;2023-12-20T07:38:31;1.00;99.90
44695;DHT22;32845;59.422;17.930;2023-12-20T07:43:02;1.00;99.90
44695;DHT22;32845;59.422;17.930;2023-12-20T07:47:32;1.10;99.90
44695;DHT22;32845;59.422;17.930;2023-12-20T07:52:03;1.10;99.90
44695;DHT22;32845;59.422;17.930;2023-12-20T07:56:34;1.10;99.90
44695;DHT22;32845;59.422;17.930;2023-12-20T08:01:04;1.10;99.90
44695;DHT22;32845;59.422;17.930;2023-12-20T08:05:35;1.10;99.90
44695;DHT22;32845;59.422;17.930;2023-12-20T08:10:06;1.10;99.90
44695;DHT22;32845;59.422;17.930;2023-12-20T08:14:37;1.20;99.90
44695;DHT22;32845;59.422;17.930;2023-12-20T08:19:08;1.20;99.90
44695;DHT22;32845;59.422;17.930;2023-12-20T08:23:38;1.20;99.90
44695;DHT22;32845;59.422;17.930;2023-12-20T08:28:09;1.20;99.90
44695;DHT22;32845;59.422;17.930;2023-12-20T08:32:40;1.30;99.90
44695;DHT22;32845;59.422;17.930;2023-12-20T08:37:10;1.30;99.90
44695;DHT22;32845;59.422;17.930;2023-12-20T08:41:43;1.30;99.90
44695;DHT22;32845;59.422;17.930;2023-12-20T08:46:15;1.30;99.90
44695;DHT22;32845;59.422;17.930;2023-12-20T08:50:45;1.40;99.90
44695;DHT22;32845;59.422;17.930;2023-12-20T08:55:18;1.40;99.90
44695;DHT22;32845;59.422;17.930;2023-12-20T08:59:50;1.40;99.90
44695;DHT22;32845;59.422;17.930;2023-12-20T09:04:20;1.40;99.90
44695;DHT22;32845;59.422;17.930;2023-12-20T09:08:51;1.50;99.90
44695;DHT22;32845;59.422;17.930;2023-12-20T09:13:22;1.50;99.90
44695;DHT22;32845;59.422;17.930;2023-12-20T09:17:57;1.50;99.90
44695;DHT22;32845;59.422;17.930;2023-12-20T09:22:28;1.60;99.90
44695;DHT22;32845;59.422;17.930;2023-12-20T09:26:59;1.60;99.90
44695;DHT22;32845;59.422;17.930;2023-12-20T09:31:30;1.60;99.90
44695;DHT22;32845;59.422;17.930;2023-12-20T09:36:00;1.60;99.90
44695;DHT22;32845;59.422;17.930;2023-12-20T09:40:32;1.60;99.90
44695;DHT22;32845;59.422;17.930;2023-12-20T09:45:08;1.60;99.90
44695;DHT22;32845;59.422;17.930;2023-12-20T09:49:39;1.60;99.90
44695;DHT22;32845;59.422;17.930;2023-12-20T09:54:10;1.60;99.90
44695;DHT22;32845;59.422;17.930;2023-12-20T09:58:40;1.60;99.90
44695;DHT22;32845;59.422;17.930;2023-12-20T10:03:12;1.60;99.90
44695;DHT22;32845;59.422;17.930;2023-12-20T10:07:44;1.70;99.90
44695;DHT22;32845;59.422;17.930;2023-12-20T10:12:15;1.70;99.90
44695;DHT22;32845;59.422;17.930;2023-12-20T10:16:45;1.70;99.90
44695;DHT22;32845;59.422;17.930;2023-12-20T10:21:16;1.70;99.90
44695;DHT22;32845;59.422;17.930;2023-12-20T10:26:00;1.80;99.90
44695;DHT22;32845;59.422;17.930;2023-12-20T10:30:30;1.80;99.90
44695;DHT22;32845;59.422;17.930;2023-12-20T10:35:01;1.90;99.90
44695;DHT22;32845;59.422;17.930;2023-12-20T10:39:33;1.90;99.90
44695;DHT22;32845;59.422;17.930;2023-12-20T10:44:04;2.00;99.90
44695;DHT22;32845;59.422;17.930;2023-12-20T10:48:38;2.00;99.90
44695;DHT22;32845;59.422;17.930;2023-12-20T10:53:10;2.00;99.90
44695;DHT22;32845;59.422;17.930;2023-12-20T10:57:43;2.00;99.90
44695;DHT22;32845;59.422;17.930;2023-12-20T11:02:22;2.00;99.90
44695;DHT22;32845;59.422;17.930;2023-12-20T11:07:00;2.00;99.90
44695;DHT22;32845;59.422;17.930;2023-12-20T11:16:25;2.00;99.90
44695;DHT22;32845;59.422;17.930;2023-12-20T11:21:06;1.90;99.90
44695;DHT22;32845;59.422;17.930;2023-12-20T11:25:52;1.90;99.90
44695;DHT22;32845;59.422;17.930;2023-12-20T11:30:23;1.90;99.90
44695;DHT22;32845;59.422;17.930;2023-12-20T11:34:56;1.80;99.90
44695;DHT22;32845;59.422;17.930;2023-12-20T11:39:27;1.70;99.90
44695;DHT22;32845;59.422;17.930;2023-12-20T11:44:00;1.70;99.90
44695;DHT22;32845;59.422;17.930;2023-12-20T11:48:32;1.70;99.90
44695;DHT22;32845;59.422;17.930;2023-12-20T11:53:03;1.70;99.90
44695;DHT22;32845;59.422;17.930;2023-12-20T11:57:34;1.70;99.90
44695;DHT22;32845;59.422;17.930;2023-12-20T12:02:06;1.70;99.90
44695;DHT22;32845;59.422;17.930;2023-12-20T12:06:36;1.60;99.90
44695;DHT22;32845;59.422;17.930;2023-12-20T12:11:07;1.60;99.90
44695;DHT22;32845;59.422;17.930;2023-12-20T12:15:38;1.60;99.90
44695;DHT22;32845;59.422;17.930;2023-12-20T12:20:08;1.60;99.90
44695;DHT22;32845;59.422;17.930;2023-12-20T12:24:41;1.60;99.90
44695;DHT22;32845;59.422;17.930;2023-12-20T12:29:12;1.60;99.90
44695;DHT22;32845;59.422;17.930;2023-12-20T12:33:43;1.60;99.90
44695;DHT22;32845;59.422;17.930;2023-12-20T12:38:15;1.50;99.90
44695;DHT22;32845;59.422;17.930;2023-12-20T12:42:46;1.50;99.90
44695;DHT22;32845;59.422;17.930;2023-12-20T12:47:17;1.50;99.90
44695;DHT22;32845;59.422;17.930;2023-12-20T12:51:47;1.50;99.90
44695;DHT22;32845;59.422;17.930;2023-12-20T12:56:18;1.50;99.90
44695;DHT22;32845;59.422;17.930;2023-12-20T13:00:49;1.50;99.90
44695;DHT22;32845;59.422;17.930;2023-12-20T13:05:19;1.50;99.90
44695;DHT22;32845;59.422;17.930;2023-12-20T13:09:50;1.50;99.90
44695;DHT22;32845;59.422;17.930;2023-12-20T13:14:21;1.50;99.90
44695;DHT22;32845;59.422;17.930;2023-12-20T13:18:52;1.50;99.90
44695;DHT22;32845;59.422;17.930;2023-12-20T13:23:22;1.50;99.90
44695;DHT22;32845;59.422;17.930;2023-12-20T13:27:53;1.60;99.90
44695;DHT22;32845;59.422;17.930;2023-12-20T13:32:27;1.50;99.90
44695;DHT22;32845;59.422;17.930;2023-12-20T13:36:57;1.60;99.90
44695;DHT22;32845;59.422;17.930;2023-12-20T13:41:28;1.60;99.90
44695;DHT22;32845;59.422;17.930;2023-12-20T13:45:59;1.60;99.90
44695;DHT22;32845;59.422;17.930;2023-12-20T13:50:30;1.60;99.90
44695;DHT22;32845;59.422;17.930;2023-12-20T13:55:00;1.60;99.90
44695;DHT22;32845;59.422;17.930;2023-12-20T13:59:31;1.60;99.90
44695;DHT22;32845;59.422;17.930;2023-12-20T14:04:01;1.60;99.90
44695;DHT22;32845;59.422;17.930;2023-12-20T14:08:32;1.60;99.90
44695;DHT22;32845;59.422;17.930;2023-12-20T14:13:03;1.60;99.90
44695;DHT22;32845;59.422;17.930;2023-12-20T14:17:33;1.70;99.90
44695;DHT22;32845;59.422;17.930;2023-12-20T14:22:04;1.70;99.90
44695;DHT22;32845;59.422;17.930;2023-12-20T14:26:34;1.70;99.90
44695;DHT22;32845;59.422;17.930;2023-12-20T14:31:05;1.70;99.90
44695;DHT22;32845;59.422;17.930;2023-12-20T14:35:36;1.80;99.90
44695;DHT22;32845;59.422;17.930;2023-12-20T14:40:07;1.80;99.90
44695;DHT22;32845;59.422;17.930;2023-12-20T14:44:41;1.80;99.90
44695;DHT22;32845;59.422;17.930;2023-12-20T14:49:11;1.80;99.90
44695;DHT22;32845;59.422;17.930;2023-12-20T14:53:42;1.80;99.90
44695;DHT22;32845;59.422;17.930;2023-12-20T14:58:13;1.90;99.90
44695;DHT22;32845;59.422;17.930;2023-12-20T15:02:45;1.90;99.90
44695;DHT22;32845;59.422;17.930;2023-12-20T15:07:16;2.00;99.90
44695;DHT22;32845;59.422;17.930;2023-12-20T15:11:47;2.00;99.90
44695;DHT22;32845;59.422;17.930;2023-12-20T15:16:18;2.10;99.90
44695;DHT22;32845;59.422;17.930;2023-12-20T15:20:48;2.10;99.90
44695;DHT22;32845;59.422;17.930;2023-12-20T15:25:19;2.10;99.90
44695;DHT22;32845;59.422;17.930;2023-12-20T15:29:52;2.10;99.90
44695;DHT22;32845;59.422;17.930;2023-12-20T15:34:22;2.20;99.90
44695;DHT22;32845;59.422;17.930;2023-12-20T15:38:53;2.20;99.90
44695;DHT22;32845;59.422;17.930;2023-12-20T15:43:23;2.20;99.90
44695;DHT22;32845;59.422;17.930;2023-12-20T15:47:56;2.10;99.90
44695;DHT22;32845;59.422;17.930;2023-12-20T15:52:26;2.20;99.90
44695;DHT22;32845;59.422;17.930;2023-12-20T15:56:57;2.20;99.90
44695;DHT22;32845;59.422;17.930;2023-12-20T16:01:29;2.30;99.90
44695;DHT22;32845;59.422;17.930;2023-12-20T16:06:00;2.30;99.90
44695;DHT22;32845;59.422;17.930;2023-12-20T16:10:30;2.30;99.90
44695;DHT22;32845;59.422;17.930;2023-12-20T16:15:01;2.30;99.90
44695;DHT22;32845;59.422;17.930;2023-12-20T16:19:32;2.40;99.90
44695;DHT22;32845;59.422;17.930;2023-12-20T16:24:03;2.30;99.90
44695;DHT22;32845;59.422;17.930;2023-12-20T16:28:34;2.30;99.90
44695;DHT22;32845;59.422;17.930;2023-12-20T16:33:04;2.30;99.90
44695;DHT22;32845;59.422;17.930;2023-12-20T16:37:35;2.30;99.90
44695;DHT22;32845;59.422;17.930;2023-12-20T16:42:08;2.30;99.90
44695;DHT22;32845;59.422;17.930;2023-12-20T16:46:39;2.30;99.90
44695;DHT22;32845;59.422;17.930;2023-12-20T16:51:09;2.30;99.90
44695;DHT22;32845;59.422;17.930;2023-12-20T16:55:40;2.40;99.90
44695;DHT22;32845;59.422;17.930;2023-12-20T17:00:14;2.40;99.90
44695;DHT22;32845;59.422;17.930;2023-12-20T17:04:45;2.40;99.90
44695;DHT22;32845;59.422;17.930;2023-12-20T17:09:16;2.40;99.90
44695;DHT22;32845;59.422;17.930;2023-12-20T17:13:47;2.40;99.90
44695;DHT22;32845;59.422;17.930;2023-12-20T17:18:17;2.30;99.90
44695;DHT22;32845;59.422;17.930;2023-12-20T17:22:48;2.40;99.90
44695;DHT22;32845;59.422;17.930;2023-12-20T17:27:18;2.40;99.90
44695;DHT22;32845;59.422;17.930;2023-12-20T17:31:49;2.40;99.90
44695;DHT22;32845;59.422;17.930;2023-12-20T17:36:19;2.40;99.90
44695;DHT22;32845;59.422;17.930;2023-12-20T17:40:50;2.40;99.90
44695;DHT22;32845;59.422;17.930;2023-12-20T17:45:26;2.40;99.90
44695;DHT22;32845;59.422;17.930;2023-12-20T17:49:56;2.40;99.90
44695;DHT22;32845;59.422;17.930;2023-12-20T17:54:27;2.40;99.90
44695;DHT22;32845;59.422;17.930;2023-12-20T17:59:00;2.40;99.90
44695;DHT22;32845;59.422;17.930;2023-12-20T18:03:31;2.40;99.90
44695;DHT22;32845;59.422;17.930;2023-12-20T18:08:02;2.40;99.90
44695;DHT22;32845;59.422;17.930;2023-12-20T18:12:33;2.40;99.90
44695;DHT22;32845;59.422;17.930;2023-12-20T18:17:03;2.40;99.90
44695;DHT22;32845;59.422;17.930;2023-12-20T18:21:34;2.40;99.90
44695;DHT22;32845;59.422;17.930;2023-12-20T18:26:04;2.40;99.90
44695;DHT22;32845;59.422;17.930;2023-12-20T18:30:35;2.40;99.90
44695;DHT22;32845;59.422;17.930;2023-12-20T18:35:11;2.40;99.90
44695;DHT22;32845;59.422;17.930;2023-12-20T18:39:41;2.40;99.90
44695;DHT22;32845;59.422;17.930;2023-12-20T18:44:12;2.40;99.90
44695;DHT22;32845;59.422;17.930;2023-12-20T18:48:42;2.30;99.90
44695;DHT22;32845;59.422;17.930;2023-12-20T18:53:15;2.30;99.90
44695;DHT22;32845;59.422;17.930;2023-12-20T18:57:46;2.30;99.90
44695;DHT22;32845;59.422;17.930;2023-12-20T19:02:17;2.20;99.90
44695;DHT22;32845;59.422;17.930;2023-12-20T19:06:48;2.20;99.90
44695;DHT22;32845;59.422;17.930;2023-12-20T19:11:20;2.20;99.90
44695;DHT22;32845;59.422;17.930;2023-12-20T19:15:50;2.20;99.90
44695;DHT22;32845;59.422;17.930;2023-12-20T19:20:21;2.20;99.90
44695;DHT22;32845;59.422;17.930;2023-12-20T19:24:51;2.20;99.90
44695;DHT22;32845;59.422;17.930;2023-12-20T19:29:23;2.10;99.90
44695;DHT22;32845;59.422;17.930;2023-12-20T19:33:54;2.00;99.90
44695;DHT22;32845;59.422;17.930;2023-12-20T19:38:26;2.00;99.90
44695;DHT22;32845;59.422;17.930;2023-12-20T19:42:56;1.90;99.90
44695;DHT22;32845;59.422;17.930;2023-12-20T19:47:27;1.90;99.90
44695;DHT22;32845;59.422;17.930;2023-12-20T19:51:58;1.90;99.90
44695;DHT22;32845;59.422;17.930;2023-12-20T19:56:29;1.90;99.90
44695;DHT22;32845;59.422;17.930;2023-12-20T20:01:00;1.90;99.90
44695;DHT22;32845;59.422;17.930;2023-12-20T20:05:35;1.90;99.90
44695;DHT22;32845;59.422;17.930;2023-12-20T20:10:06;1.90;99.90
44695;DHT22;32845;59.422;17.930;2023-12-20T20:14:37;1.90;99.90
44695;DHT22;32845;59.422;17.930;2023-12-20T20:19:08;2.00;99.90
44695;DHT22;32845;59.422;17.930;2023-12-20T20:23:38;2.00;99.90
44695;DHT22;32845;59.422;17.930;2023-12-20T20:28:09;2.00;99.90
44695;DHT22;32845;59.422;17.930;2023-12-20T20:32:39;2.00;99.90
44695;DHT22;32845;59.422;17.930;2023-12-20T20:37:11;2.00;99.90
44695;DHT22;32845;59.422;17.930;2023-12-20T20:41:41;2.00;99.90
44695;DHT22;32845;59.422;17.930;2023-12-20T20:46:12;2.00;99.90
44695;DHT22;32845;59.422;17.930;2023-12-20T20:50:43;2.00;99.90
44695;DHT22;32845;59.422;17.930;2023-12-20T20:55:14;2.00;99.90
44695;DHT22;32845;59.422;17.930;2023-12-20T20:59:44;2.00;99.90
44695;DHT22;32845;59.422;17.930;2023-12-20T21:04:16;2.00;99.90
44695;DHT22;32845;59.422;17.930;2023-12-20T21:08:47;2.10;99.90
44695;DHT22;32845;59.422;17.930;2023-12-20T21:13:17;2.10;99.90
44695;DHT22;32845;59.422;17.930;2023-12-20T21:17:48;2.10;99.90
44695;DHT22;32845;59.422;17.930;2023-12-20T21:22:19;2.10;99.90
44695;DHT22;32845;59.422;17.930;2023-12-20T21:26:49;2.20;99.90
44695;DHT22;32845;59.422;17.930;2023-12-20T21:31:20;2.20;99.90
44695;DHT22;32845;59.422;17.930;2023-12-20T21:35:51;2.20;99.90
44695;DHT22;32845;59.422;17.930;2023-12-20T21:40:21;2.20;99.90
44695;DHT22;32845;59.422;17.930;2023-12-20T21:44:52;2.20;99.90
44695;DHT22;32845;59.422;17.930;2023-12-20T21:49:23;2.20;99.90
44695;DHT22;32845;59.422;17.930;2023-12-20T21:53:53;2.20;99.90
44695;DHT22;32845;59.422;17.930;2023-12-20T21:58:30;2.20;99.90
44695;DHT22;32845;59.422;17.930;2023-12-20T22:03:01;2.20;99.90
44695;DHT22;32845;59.422;17.930;2023-12-20T22:07:39;2.20;99.90
44695;DHT22;32845;59.422;17.930;2023-12-20T22:12:10;2.20;99.90
44695;DHT22;32845;59.422;17.930;2023-12-20T22:16:40;2.20;99.90
44695;DHT22;32845;59.422;17.930;2023-12-20T22:21:11;2.20;99.90
44695;DHT22;32845;59.422;17.930;2023-12-20T22:25:42;2.20;99.90
44695;DHT22;32845;59.422;17.930;2023-12-20T22:30:14;2.20;99.90
44695;DHT22;32845;59.422;17.930;2023-12-20T22:34:44;2.10;99.90
44695;DHT22;32845;59.422;17.930;2023-12-20T22:39:15;2.10;99.90
44695;DHT22;32845;59.422;17.930;2023-12-20T22:43:45;2.10;99.90
44695;DHT22;32845;59.422;17.930;2023-12-20T22:48:16;2.10;99.90
44695;DHT22;32845;59.422;17.930;2023-12-20T22:52:47;2.10;99.90
44695;DHT22;32845;59.422;17.930;2023-12-20T22:57:17;2.10;99.90
44695;DHT22;32845;59.422;17.930;2023-12-20T23:01:48;2.00;99.90
44695;DHT22;32845;59.422;17.930;2023-12-20T23:06:19;2.00;99.90
44695;DHT22;32845;59.422;17.930;2023-12-20T23:10:49;2.00;99.90
44695;DHT22;32845;59.422;17.930;2023-12-20T23:15:20;1.90;99.90
44695;DHT22;32845;59.422;17.930;2023-12-20T23:19:50;1.90;99.90
44695;DHT22;32845;59.422;17.930;2023-12-20T23:24:21;1.90;99.90
44695;DHT22;32845;59.422;17.930;2023-12-20T23:28:51;1.90;99.90
44695;DHT22;32845;59.422;17.930;2023-12-20T23:33:22;1.80;99.90
44695;DHT22;32845;59.422;17.930;2023-12-20T23:37:53;1.80;99.90
44695;DHT22;32845;59.422;17.930;2023-12-20T23:42:24;1.80;99.90
44695;DHT22;32845;59.422;17.930;2023-12-20T23:46:55;1.70;99.90
44695;DHT22;32845;59.422;17.930;2023-12-20T23:51:25;1.70;99.90
44695;DHT22;32845;59.422;17.930;2023-12-20T23:55:56;1.70;99.90
